sensor_id;sensor_type;location;lat;lon;timestamp;P1;durP1;ratioP1;P2;durP2;ratioP2
56297;SDS011;42208;6.376;-10.782;2023-04-15T00:00:09;37.72;;;12.48;;
56297;SDS011;42208;6.376;-10.782;2023-04-15T00:02:43;43.33;;;13.82;;
56297;SDS011;42208;6.376;-10.782;2023-04-15T00:05:12;47.28;;;16.08;;
56297;SDS011;42208;6.376;-10.782;2023-04-15T00:07:40;60.15;;;18.95;;
56297;SDS011;42208;6.376;-10.782;2023-04-15T00:10:08;63.08;;;23.67;;
56297;SDS011;42208;6.376;-10.782;2023-04-15T00:12:37;73.47;;;29.85;;
56297;SDS011;42208;6.376;-10.782;2023-04-15T00:15:05;107.38;;;36.47;;
56297;SDS011;42208;6.376;-10.782;2023-04-15T00:17:35;101.15;;;35.22;;
56297;SDS011;42208;6.376;-10.782;2023-04-15T00:20:04;97.00;;;36.63;;
56297;SDS011;42208;6.376;-10.782;2023-04-15T00:22:32;110.60;;;36.13;;
56297;SDS011;42208;6.376;-10.782;2023-04-15T00:25:01;105.03;;;36.50;;
56297;SDS011;42208;6.376;-10.782;2023-04-15T00:27:29;94.07;;;35.88;;
56297;SDS011;42208;6.376;-10.782;2023-04-15T00:29:58;83.13;;;28.27;;
56297;SDS011;42208;6.376;-10.782;2023-04-15T00:32:26;62.38;;;18.85;;
56297;SDS011;42208;6.376;-10.782;2023-04-15T00:34:54;41.70;;;14.00;;
56297;SDS011;42208;6.376;-10.782;2023-04-15T00:37:22;33.95;;;9.60;;
56297;SDS011;42208;6.376;-10.782;2023-04-15T00:39:51;29.45;;;8.25;;
56297;SDS011;42208;6.376;-10.782;2023-04-15T00:42:19;31.85;;;8.75;;
56297;SDS011;42208;6.376;-10.782;2023-04-15T00:44:48;25.25;;;7.18;;
56297;SDS011;42208;6.376;-10.782;2023-04-15T00:47:17;26.13;;;8.38;;
56297;SDS011;42208;6.376;-10.782;2023-04-15T00:49:46;41.03;;;9.40;;
56297;SDS011;42208;6.376;-10.782;2023-04-15T00:52:14;32.45;;;9.18;;
56297;SDS011;42208;6.376;-10.782;2023-04-15T00:54:43;31.60;;;6.88;;
56297;SDS011;42208;6.376;-10.782;2023-04-15T00:57:11;24.58;;;7.07;;
56297;SDS011;42208;6.376;-10.782;2023-04-15T00:59:39;25.00;;;7.50;;
56297;SDS011;42208;6.376;-10.782;2023-04-15T01:02:07;34.53;;;9.73;;
56297;SDS011;42208;6.376;-10.782;2023-04-15T01:04:36;32.72;;;9.13;;
56297;SDS011;42208;6.376;-10.782;2023-04-15T01:07:04;35.20;;;9.27;;
56297;SDS011;42208;6.376;-10.782;2023-04-15T01:09:33;37.28;;;8.55;;
56297;SDS011;42208;6.376;-10.782;2023-04-15T01:12:01;33.05;;;8.13;;
56297;SDS011;42208;6.376;-10.782;2023-04-15T01:14:30;31.85;;;8.75;;
56297;SDS011;42208;6.376;-10.782;2023-04-15T01:16:59;34.58;;;8.70;;
56297;SDS011;42208;6.376;-10.782;2023-04-15T01:19:28;29.10;;;8.48;;
56297;SDS011;42208;6.376;-10.782;2023-04-15T01:21:57;32.85;;;9.30;;
56297;SDS011;42208;6.376;-10.782;2023-04-15T01:24:25;30.42;;;9.55;;
56297;SDS011;42208;6.376;-10.782;2023-04-15T01:26:56;31.92;;;9.90;;
56297;SDS011;42208;6.376;-10.782;2023-04-15T01:29:25;35.22;;;10.90;;
56297;SDS011;42208;6.376;-10.782;2023-04-15T01:31:54;33.42;;;9.93;;
56297;SDS011;42208;6.376;-10.782;2023-04-15T01:34:24;24.83;;;9.43;;
56297;SDS011;42208;6.376;-10.782;2023-04-15T01:36:53;30.77;;;9.23;;
56297;SDS011;42208;6.376;-10.782;2023-04-15T01:39:21;27.92;;;8.15;;
56297;SDS011;42208;6.376;-10.782;2023-04-15T01:41:49;37.60;;;10.05;;
56297;SDS011;42208;6.376;-10.782;2023-04-15T01:44:17;33.55;;;8.27;;
56297;SDS011;42208;6.376;-10.782;2023-04-15T01:46:46;33.67;;;9.68;;
56297;SDS011;42208;6.376;-10.782;2023-04-15T01:49:14;27.25;;;9.43;;
56297;SDS011;42208;6.376;-10.782;2023-04-15T01:51:42;34.85;;;9.52;;
56297;SDS011;42208;6.376;-10.782;2023-04-15T01:54:11;30.92;;;8.15;;
56297;SDS011;42208;6.376;-10.782;2023-04-15T01:56:40;41.13;;;9.75;;
56297;SDS011;42208;6.376;-10.782;2023-04-15T01:59:08;28.30;;;8.55;;
56297;SDS011;42208;6.376;-10.782;2023-04-15T02:01:37;37.20;;;9.50;;
56297;SDS011;42208;6.376;-10.782;2023-04-15T02:04:05;28.45;;;9.18;;
56297;SDS011;42208;6.376;-10.782;2023-04-15T02:06:34;28.58;;;8.75;;
56297;SDS011;42208;6.376;-10.782;2023-04-15T02:09:02;33.58;;;6.72;;
56297;SDS011;42208;6.376;-10.782;2023-04-15T02:11:30;19.33;;;7.30;;
56297;SDS011;42208;6.376;-10.782;2023-04-15T02:13:58;24.33;;;7.60;;
56297;SDS011;42208;6.376;-10.782;2023-04-15T02:16:27;26.80;;;7.15;;
56297;SDS011;42208;6.376;-10.782;2023-04-15T02:18:55;29.20;;;7.50;;
56297;SDS011;42208;6.376;-10.782;2023-04-15T02:21:25;35.22;;;8.45;;
56297;SDS011;42208;6.376;-10.782;2023-04-15T02:23:53;36.70;;;9.95;;
56297;SDS011;42208;6.376;-10.782;2023-04-15T02:26:22;38.65;;;9.95;;
56297;SDS011;42208;6.376;-10.782;2023-04-15T02:28:53;39.15;;;10.18;;
56297;SDS011;42208;6.376;-10.782;2023-04-15T02:31:21;34.85;;;10.85;;
56297;SDS011;42208;6.376;-10.782;2023-04-15T02:33:51;40.90;;;12.70;;
56297;SDS011;42208;6.376;-10.782;2023-04-15T02:36:19;39.05;;;12.70;;
56297;SDS011;42208;6.376;-10.782;2023-04-15T02:38:47;40.08;;;12.77;;
56297;SDS011;42208;6.376;-10.782;2023-04-15T02:41:16;44.60;;;13.88;;
56297;SDS011;42208;6.376;-10.782;2023-04-15T02:43:44;43.58;;;13.95;;
56297;SDS011;42208;6.376;-10.782;2023-04-15T02:46:13;45.38;;;13.68;;
56297;SDS011;42208;6.376;-10.782;2023-04-15T02:48:41;34.45;;;12.05;;
56297;SDS011;42208;6.376;-10.782;2023-04-15T02:51:13;36.67;;;13.38;;
56297;SDS011;42208;6.376;-10.782;2023-04-15T02:53:46;33.92;;;11.60;;
56297;SDS011;42208;6.376;-10.782;2023-04-15T02:56:15;44.20;;;13.30;;
56297;SDS011;42208;6.376;-10.782;2023-04-15T02:58:44;33.28;;;12.07;;
56297;SDS011;42208;6.376;-10.782;2023-04-15T03:01:12;40.63;;;12.05;;
56297;SDS011;42208;6.376;-10.782;2023-04-15T03:03:41;31.73;;;9.60;;
56297;SDS011;42208;6.376;-10.782;2023-04-15T03:06:09;31.50;;;11.05;;
56297;SDS011;42208;6.376;-10.782;2023-04-15T03:08:41;33.05;;;10.48;;
56297;SDS011;42208;6.376;-10.782;2023-04-15T03:11:12;37.17;;;10.43;;
56297;SDS011;42208;6.376;-10.782;2023-04-15T03:13:41;32.75;;;9.95;;
56297;SDS011;42208;6.376;-10.782;2023-04-15T03:16:21;35.25;;;9.50;;
56297;SDS011;42208;6.376;-10.782;2023-04-15T03:18:50;31.58;;;11.63;;
56297;SDS011;42208;6.376;-10.782;2023-04-15T03:21:20;32.55;;;13.07;;
56297;SDS011;42208;6.376;-10.782;2023-04-15T03:23:48;36.40;;;12.75;;
56297;SDS011;42208;6.376;-10.782;2023-04-15T03:26:24;42.83;;;11.70;;
56297;SDS011;42208;6.376;-10.782;2023-04-15T03:29:04;32.28;;;12.27;;
56297;SDS011;42208;6.376;-10.782;2023-04-15T03:31:33;33.88;;;11.35;;
56297;SDS011;42208;6.376;-10.782;2023-04-15T03:34:01;34.72;;;10.60;;
56297;SDS011;42208;6.376;-10.782;2023-04-15T03:36:29;30.05;;;10.80;;
56297;SDS011;42208;6.376;-10.782;2023-04-15T03:38:58;33.30;;;11.25;;
56297;SDS011;42208;6.376;-10.782;2023-04-15T03:41:27;38.67;;;9.85;;
56297;SDS011;42208;6.376;-10.782;2023-04-15T03:43:55;35.22;;;10.90;;
56297;SDS011;42208;6.376;-10.782;2023-04-15T03:46:23;31.30;;;7.55;;
56297;SDS011;42208;6.376;-10.782;2023-04-15T03:48:52;26.80;;;8.52;;
56297;SDS011;42208;6.376;-10.782;2023-04-15T03:51:20;34.55;;;9.40;;
56297;SDS011;42208;6.376;-10.782;2023-04-15T03:53:48;29.25;;;8.80;;
56297;SDS011;42208;6.376;-10.782;2023-04-15T03:56:16;25.00;;;9.13;;
56297;SDS011;42208;6.376;-10.782;2023-04-15T03:58:45;30.33;;;8.52;;
56297;SDS011;42208;6.376;-10.782;2023-04-15T04:01:13;31.45;;;8.73;;
56297;SDS011;42208;6.376;-10.782;2023-04-15T04:03:41;38.67;;;8.32;;
56297;SDS011;42208;6.376;-10.782;2023-04-15T04:06:09;36.05;;;9.05;;
56297;SDS011;42208;6.376;-10.782;2023-04-15T04:08:38;27.00;;;8.35;;
56297;SDS011;42208;6.376;-10.782;2023-04-15T04:11:06;27.83;;;7.53;;
56297;SDS011;42208;6.376;-10.782;2023-04-15T04:13:34;24.98;;;8.40;;
56297;SDS011;42208;6.376;-10.782;2023-04-15T04:16:02;26.17;;;8.35;;
56297;SDS011;42208;6.376;-10.782;2023-04-15T04:18:31;32.83;;;10.05;;
56297;SDS011;42208;6.376;-10.782;2023-04-15T04:20:59;32.53;;;13.93;;
56297;SDS011;42208;6.376;-10.782;2023-04-15T04:23:28;34.35;;;14.98;;
56297;SDS011;42208;6.376;-10.782;2023-04-15T04:25:56;41.53;;;13.05;;
56297;SDS011;42208;6.376;-10.782;2023-04-15T04:28:24;34.22;;;11.63;;
56297;SDS011;42208;6.376;-10.782;2023-04-15T04:30:52;31.08;;;9.93;;
56297;SDS011;42208;6.376;-10.782;2023-04-15T04:33:21;33.65;;;8.73;;
56297;SDS011;42208;6.376;-10.782;2023-04-15T04:35:49;26.55;;;8.32;;
56297;SDS011;42208;6.376;-10.782;2023-04-15T04:38:17;30.10;;;8.77;;
56297;SDS011;42208;6.376;-10.782;2023-04-15T04:40:45;37.08;;;7.82;;
56297;SDS011;42208;6.376;-10.782;2023-04-15T04:43:14;21.42;;;6.88;;
56297;SDS011;42208;6.376;-10.782;2023-04-15T04:45:42;29.30;;;9.18;;
56297;SDS011;42208;6.376;-10.782;2023-04-15T04:48:10;40.08;;;10.68;;
56297;SDS011;42208;6.376;-10.782;2023-04-15T04:50:38;40.47;;;11.70;;
56297;SDS011;42208;6.376;-10.782;2023-04-15T04:53:07;47.25;;;15.20;;
56297;SDS011;42208;6.376;-10.782;2023-04-15T04:55:35;62.65;;;21.08;;
56297;SDS011;42208;6.376;-10.782;2023-04-15T04:58:03;60.63;;;21.73;;
56297;SDS011;42208;6.376;-10.782;2023-04-15T05:00:31;62.00;;;21.73;;
56297;SDS011;42208;6.376;-10.782;2023-04-15T05:03:00;65.93;;;24.23;;
56297;SDS011;42208;6.376;-10.782;2023-04-15T05:05:28;65.00;;;24.75;;
56297;SDS011;42208;6.376;-10.782;2023-04-15T05:07:56;61.28;;;24.25;;
56297;SDS011;42208;6.376;-10.782;2023-04-15T05:10:25;67.40;;;28.40;;
56297;SDS011;42208;6.376;-10.782;2023-04-15T05:12:53;78.45;;;30.35;;
56297;SDS011;42208;6.376;-10.782;2023-04-15T05:15:21;89.70;;;31.95;;
56297;SDS011;42208;6.376;-10.782;2023-04-15T05:17:49;93.75;;;34.92;;
56297;SDS011;42208;6.376;-10.782;2023-04-15T05:20:17;85.65;;;34.28;;
56297;SDS011;42208;6.376;-10.782;2023-04-15T05:22:46;88.35;;;35.83;;
56297;SDS011;42208;6.376;-10.782;2023-04-15T05:25:14;86.05;;;36.42;;
56297;SDS011;42208;6.376;-10.782;2023-04-15T05:27:42;91.80;;;36.00;;
56297;SDS011;42208;6.376;-10.782;2023-04-15T05:30:11;83.85;;;32.15;;
56297;SDS011;42208;6.376;-10.782;2023-04-15T05:32:39;89.75;;;32.78;;
56297;SDS011;42208;6.376;-10.782;2023-04-15T05:35:07;83.07;;;31.90;;
56297;SDS011;42208;6.376;-10.782;2023-04-15T05:37:36;77.90;;;33.35;;
56297;SDS011;42208;6.376;-10.782;2023-04-15T05:40:04;85.78;;;32.90;;
56297;SDS011;42208;6.376;-10.782;2023-04-15T05:42:33;69.18;;;29.95;;
56297;SDS011;42208;6.376;-10.782;2023-04-15T05:45:02;78.70;;;30.73;;
56297;SDS011;42208;6.376;-10.782;2023-04-15T05:47:31;73.53;;;28.20;;
56297;SDS011;42208;6.376;-10.782;2023-04-15T05:49:59;63.88;;;27.50;;
56297;SDS011;42208;6.376;-10.782;2023-04-15T05:52:27;68.82;;;29.60;;
56297;SDS011;42208;6.376;-10.782;2023-04-15T05:54:56;80.88;;;30.75;;
56297;SDS011;42208;6.376;-10.782;2023-04-15T05:57:24;86.15;;;31.45;;
56297;SDS011;42208;6.376;-10.782;2023-04-15T05:59:52;67.22;;;31.00;;
56297;SDS011;42208;6.376;-10.782;2023-04-15T06:02:20;73.70;;;29.15;;
56297;SDS011;42208;6.376;-10.782;2023-04-15T06:04:49;76.20;;;31.02;;
56297;SDS011;42208;6.376;-10.782;2023-04-15T06:07:17;76.22;;;33.28;;
56297;SDS011;42208;6.376;-10.782;2023-04-15T06:09:45;70.30;;;32.25;;
56297;SDS011;42208;6.376;-10.782;2023-04-15T06:12:14;74.97;;;32.20;;
56297;SDS011;42208;6.376;-10.782;2023-04-15T06:14:42;69.68;;;31.92;;
56297;SDS011;42208;6.376;-10.782;2023-04-15T06:17:10;89.63;;;33.15;;
56297;SDS011;42208;6.376;-10.782;2023-04-15T06:19:38;81.10;;;32.40;;
56297;SDS011;42208;6.376;-10.782;2023-04-15T06:22:07;82.63;;;34.15;;
56297;SDS011;42208;6.376;-10.782;2023-04-15T06:24:36;80.07;;;33.63;;
56297;SDS011;42208;6.376;-10.782;2023-04-15T06:27:04;66.88;;;31.13;;
56297;SDS011;42208;6.376;-10.782;2023-04-15T06:29:32;69.30;;;30.00;;
56297;SDS011;42208;6.376;-10.782;2023-04-15T06:32:00;66.60;;;30.42;;
56297;SDS011;42208;6.376;-10.782;2023-04-15T06:34:28;71.50;;;31.27;;
56297;SDS011;42208;6.376;-10.782;2023-04-15T06:36:57;66.30;;;29.55;;
56297;SDS011;42208;6.376;-10.782;2023-04-15T06:39:25;73.28;;;29.45;;
56297;SDS011;42208;6.376;-10.782;2023-04-15T06:41:53;69.68;;;28.98;;
56297;SDS011;42208;6.376;-10.782;2023-04-15T06:44:21;70.15;;;28.80;;
56297;SDS011;42208;6.376;-10.782;2023-04-15T06:46:50;69.22;;;29.25;;
56297;SDS011;42208;6.376;-10.782;2023-04-15T06:49:18;67.13;;;27.73;;
56297;SDS011;42208;6.376;-10.782;2023-04-15T06:51:47;62.22;;;27.98;;
56297;SDS011;42208;6.376;-10.782;2023-04-15T06:54:15;76.20;;;31.50;;
56297;SDS011;42208;6.376;-10.782;2023-04-15T06:56:43;65.43;;;28.15;;
56297;SDS011;42208;6.376;-10.782;2023-04-15T06:59:11;63.50;;;29.02;;
56297;SDS011;42208;6.376;-10.782;2023-04-15T07:01:40;73.57;;;28.75;;
56297;SDS011;42208;6.376;-10.782;2023-04-15T07:04:08;65.88;;;27.92;;
56297;SDS011;42208;6.376;-10.782;2023-04-15T07:06:37;64.03;;;26.60;;
56297;SDS011;42208;6.376;-10.782;2023-04-15T07:09:05;62.55;;;26.13;;
56297;SDS011;42208;6.376;-10.782;2023-04-15T07:11:33;72.60;;;26.27;;
56297;SDS011;42208;6.376;-10.782;2023-04-15T07:14:01;67.18;;;26.15;;
56297;SDS011;42208;6.376;-10.782;2023-04-15T07:16:30;60.10;;;23.58;;
56297;SDS011;42208;6.376;-10.782;2023-04-15T07:18:58;62.92;;;23.45;;
56297;SDS011;42208;6.376;-10.782;2023-04-15T07:21:27;62.05;;;24.00;;
56297;SDS011;42208;6.376;-10.782;2023-04-15T07:23:55;46.13;;;23.70;;
56297;SDS011;42208;6.376;-10.782;2023-04-15T07:26:23;57.80;;;24.65;;
56297;SDS011;42208;6.376;-10.782;2023-04-15T07:28:52;59.78;;;24.88;;
56297;SDS011;42208;6.376;-10.782;2023-04-15T07:31:20;60.63;;;24.85;;
56297;SDS011;42208;6.376;-10.782;2023-04-15T07:33:48;55.38;;;23.92;;
56297;SDS011;42208;6.376;-10.782;2023-04-15T07:36:17;51.80;;;23.55;;
56297;SDS011;42208;6.376;-10.782;2023-04-15T07:38:45;49.00;;;22.42;;
56297;SDS011;42208;6.376;-10.782;2023-04-15T07:41:13;58.05;;;23.30;;
56297;SDS011;42208;6.376;-10.782;2023-04-15T07:43:42;57.08;;;20.50;;
56297;SDS011;42208;6.376;-10.782;2023-04-15T07:46:10;46.05;;;21.08;;
56297;SDS011;42208;6.376;-10.782;2023-04-15T07:48:38;56.80;;;22.50;;
56297;SDS011;42208;6.376;-10.782;2023-04-15T07:51:07;53.65;;;21.80;;
56297;SDS011;42208;6.376;-10.782;2023-04-15T07:53:35;59.75;;;22.42;;
56297;SDS011;42208;6.376;-10.782;2023-04-15T07:56:03;67.07;;;25.42;;
56297;SDS011;42208;6.376;-10.782;2023-04-15T07:58:32;53.08;;;23.15;;
56297;SDS011;42208;6.376;-10.782;2023-04-15T08:01:00;51.95;;;22.63;;
56297;SDS011;42208;6.376;-10.782;2023-04-15T08:03:28;58.47;;;23.10;;
56297;SDS011;42208;6.376;-10.782;2023-04-15T08:05:57;63.63;;;24.73;;
56297;SDS011;42208;6.376;-10.782;2023-04-15T08:08:25;62.90;;;27.17;;
56297;SDS011;42208;6.376;-10.782;2023-04-15T08:10:53;82.75;;;28.95;;
56297;SDS011;42208;6.376;-10.782;2023-04-15T08:13:22;73.05;;;27.20;;
56297;SDS011;42208;6.376;-10.782;2023-04-15T08:15:52;75.63;;;29.98;;
56297;SDS011;42208;6.376;-10.782;2023-04-15T08:18:41;92.82;;;29.10;;
56297;SDS011;42208;6.376;-10.782;2023-04-15T08:21:09;73.00;;;27.80;;
56297;SDS011;42208;6.376;-10.782;2023-04-15T08:23:38;62.70;;;26.33;;
56297;SDS011;42208;6.376;-10.782;2023-04-15T08:26:07;65.55;;;27.75;;
56297;SDS011;42208;6.376;-10.782;2023-04-15T08:28:37;58.45;;;24.70;;
56297;SDS011;42208;6.376;-10.782;2023-04-15T08:31:06;75.43;;;27.73;;
56297;SDS011;42208;6.376;-10.782;2023-04-15T08:33:35;65.53;;;25.63;;
56297;SDS011;42208;6.376;-10.782;2023-04-15T08:36:03;69.18;;;25.35;;
56297;SDS011;42208;6.376;-10.782;2023-04-15T08:38:32;52.17;;;17.92;;
56297;SDS011;42208;6.376;-10.782;2023-04-15T08:41:15;41.28;;;16.23;;
56297;SDS011;42208;6.376;-10.782;2023-04-15T08:43:51;41.55;;;15.63;;
56297;SDS011;42208;6.376;-10.782;2023-04-15T08:46:23;53.53;;;15.45;;
56297;SDS011;42208;6.376;-10.782;2023-04-15T08:48:53;59.80;;;18.73;;
56297;SDS011;42208;6.376;-10.782;2023-04-15T08:51:24;61.58;;;19.83;;
56297;SDS011;42208;6.376;-10.782;2023-04-15T08:53:53;52.05;;;17.85;;
56297;SDS011;42208;6.376;-10.782;2023-04-15T08:56:25;50.00;;;18.20;;
56297;SDS011;42208;6.376;-10.782;2023-04-15T08:58:54;51.25;;;17.98;;
56297;SDS011;42208;6.376;-10.782;2023-04-15T09:01:23;57.13;;;19.27;;
56297;SDS011;42208;6.376;-10.782;2023-04-15T09:03:52;55.30;;;17.90;;
56297;SDS011;42208;6.376;-10.782;2023-04-15T09:06:21;46.85;;;18.60;;
56297;SDS011;42208;6.376;-10.782;2023-04-15T09:08:50;64.20;;;18.77;;
56297;SDS011;42208;6.376;-10.782;2023-04-15T09:11:20;64.68;;;18.30;;
56297;SDS011;42208;6.376;-10.782;2023-04-15T09:13:48;58.28;;;17.67;;
56297;SDS011;42208;6.376;-10.782;2023-04-15T09:16:17;57.28;;;18.60;;
56297;SDS011;42208;6.376;-10.782;2023-04-15T09:18:45;57.45;;;14.32;;
56297;SDS011;42208;6.376;-10.782;2023-04-15T09:21:14;57.60;;;14.18;;
56297;SDS011;42208;6.376;-10.782;2023-04-15T09:23:53;47.08;;;13.65;;
56297;SDS011;42208;6.376;-10.782;2023-04-15T09:26:44;39.85;;;12.07;;
56297;SDS011;42208;6.376;-10.782;2023-04-15T09:29:12;45.88;;;12.18;;
56297;SDS011;42208;6.376;-10.782;2023-04-15T09:31:41;64.13;;;15.02;;
56297;SDS011;42208;6.376;-10.782;2023-04-15T09:34:09;44.95;;;11.52;;
56297;SDS011;42208;6.376;-10.782;2023-04-15T09:39:16;48.47;;;13.15;;
56297;SDS011;42208;6.376;-10.782;2023-04-15T09:41:45;39.75;;;11.38;;
56297;SDS011;42208;6.376;-10.782;2023-04-15T09:44:23;47.97;;;9.05;;
56297;SDS011;42208;6.376;-10.782;2023-04-15T09:46:51;31.35;;;8.60;;
56297;SDS011;42208;6.376;-10.782;2023-04-15T09:49:20;39.75;;;10.52;;
56297;SDS011;42208;6.376;-10.782;2023-04-15T09:51:48;27.88;;;6.32;;
56297;SDS011;42208;6.376;-10.782;2023-04-15T09:54:34;36.92;;;9.30;;
56297;SDS011;42208;6.376;-10.782;2023-04-15T09:57:07;42.58;;;10.40;;
56297;SDS011;42208;6.376;-10.782;2023-04-15T09:59:36;49.08;;;9.68;;
56297;SDS011;42208;6.376;-10.782;2023-04-15T10:02:04;41.47;;;8.82;;
56297;SDS011;42208;6.376;-10.782;2023-04-15T10:04:39;73.32;;;18.58;;
56297;SDS011;42208;6.376;-10.782;2023-04-15T10:07:08;36.35;;;7.78;;
56297;SDS011;42208;6.376;-10.782;2023-04-15T10:09:38;37.63;;;12.25;;
56297;SDS011;42208;6.376;-10.782;2023-04-15T10:12:06;44.20;;;10.90;;
56297;SDS011;42208;6.376;-10.782;2023-04-15T10:14:35;63.00;;;12.65;;
56297;SDS011;42208;6.376;-10.782;2023-04-15T10:17:05;64.70;;;13.07;;
56297;SDS011;42208;6.376;-10.782;2023-04-15T10:19:37;44.97;;;7.40;;
56297;SDS011;42208;6.376;-10.782;2023-04-15T10:22:06;38.85;;;7.95;;
56297;SDS011;42208;6.376;-10.782;2023-04-15T10:24:35;43.17;;;9.07;;
56297;SDS011;42208;6.376;-10.782;2023-04-15T10:27:05;58.85;;;16.17;;
56297;SDS011;42208;6.376;-10.782;2023-04-15T10:29:34;49.70;;;16.67;;
56297;SDS011;42208;6.376;-10.782;2023-04-15T10:32:02;41.30;;;11.00;;
56297;SDS011;42208;6.376;-10.782;2023-04-15T10:34:31;53.15;;;16.08;;
56297;SDS011;42208;6.376;-10.782;2023-04-15T10:37:00;73.25;;;28.45;;
56297;SDS011;42208;6.376;-10.782;2023-04-15T10:39:39;56.72;;;19.92;;
56297;SDS011;42208;6.376;-10.782;2023-04-15T10:42:13;108.85;;;38.15;;
56297;SDS011;42208;6.376;-10.782;2023-04-15T10:44:43;83.68;;;26.08;;
56297;SDS011;42208;6.376;-10.782;2023-04-15T10:47:16;41.47;;;10.80;;
56297;SDS011;42208;6.376;-10.782;2023-04-15T10:49:50;70.97;;;18.15;;
56297;SDS011;42208;6.376;-10.782;2023-04-15T10:52:24;55.30;;;16.77;;
56297;SDS011;42208;6.376;-10.782;2023-04-15T10:55:11;53.03;;;14.10;;
56297;SDS011;42208;6.376;-10.782;2023-04-15T10:57:41;102.60;;;57.30;;
56297;SDS011;42208;6.376;-10.782;2023-04-15T11:00:11;109.25;;;46.67;;
56297;SDS011;42208;6.376;-10.782;2023-04-15T11:06:07;78.90;;;27.25;;
56297;SDS011;42208;6.376;-10.782;2023-04-15T11:08:19;64.60;;;21.67;;
56297;SDS011;42208;6.376;-10.782;2023-04-15T11:14:39;60.05;;;18.83;;
56297;SDS011;42208;6.376;-10.782;2023-04-15T11:17:07;42.92;;;7.60;;
56297;SDS011;42208;6.376;-10.782;2023-04-15T11:19:36;36.30;;;8.50;;
56297;SDS011;42208;6.376;-10.782;2023-04-15T11:22:08;48.08;;;12.20;;
56297;SDS011;42208;6.376;-10.782;2023-04-15T11:27:20;67.43;;;20.20;;
56297;SDS011;42208;6.376;-10.782;2023-04-15T11:29:49;39.38;;;9.82;;
56297;SDS011;42208;6.376;-10.782;2023-04-15T11:32:17;72.47;;;18.45;;
56297;SDS011;42208;6.376;-10.782;2023-04-15T11:34:50;92.47;;;30.45;;
56297;SDS011;42208;6.376;-10.782;2023-04-15T11:37:26;67.53;;;13.98;;
56297;SDS011;42208;6.376;-10.782;2023-04-15T11:39:55;68.38;;;14.63;;
56297;SDS011;42208;6.376;-10.782;2023-04-15T11:42:23;52.63;;;10.82;;
56297;SDS011;42208;6.376;-10.782;2023-04-15T11:45:05;43.88;;;11.52;;
56297;SDS011;42208;6.376;-10.782;2023-04-15T11:50:18;57.10;;;15.07;;
56297;SDS011;42208;6.376;-10.782;2023-04-15T11:55:22;46.45;;;10.95;;
56297;SDS011;42208;6.376;-10.782;2023-04-15T11:58:12;52.63;;;10.85;;
56297;SDS011;42208;6.376;-10.782;2023-04-15T12:00:46;49.80;;;11.52;;
56297;SDS011;42208;6.376;-10.782;2023-04-15T12:11:40;46.92;;;10.50;;
56297;SDS011;42208;6.376;-10.782;2023-04-15T12:14:25;51.38;;;15.05;;
56297;SDS011;42208;6.376;-10.782;2023-04-15T12:22:07;31.38;;;7.10;;
56297;SDS011;42208;6.376;-10.782;2023-04-15T12:24:37;25.23;;;5.65;;
56297;SDS011;42208;6.376;-10.782;2023-04-15T12:27:07;38.47;;;6.00;;
56297;SDS011;42208;6.376;-10.782;2023-04-15T12:29:38;46.10;;;7.32;;
56297;SDS011;42208;6.376;-10.782;2023-04-15T12:32:11;45.95;;;8.73;;
56297;SDS011;42208;6.376;-10.782;2023-04-15T12:34:42;50.67;;;12.52;;
56297;SDS011;42208;6.376;-10.782;2023-04-15T12:37:20;28.45;;;5.10;;
56297;SDS011;42208;6.376;-10.782;2023-04-15T12:39:48;26.10;;;6.43;;
56297;SDS011;42208;6.376;-10.782;2023-04-15T12:42:17;25.65;;;6.70;;
56297;SDS011;42208;6.376;-10.782;2023-04-15T12:44:45;45.10;;;8.13;;
56297;SDS011;42208;6.376;-10.782;2023-04-15T12:47:13;32.30;;;6.32;;
56297;SDS011;42208;6.376;-10.782;2023-04-15T12:49:42;26.42;;;6.20;;
56297;SDS011;42208;6.376;-10.782;2023-04-15T12:52:10;40.53;;;5.72;;
56297;SDS011;42208;6.376;-10.782;2023-04-15T12:54:38;24.52;;;6.03;;
56297;SDS011;42208;6.376;-10.782;2023-04-15T12:57:07;37.20;;;6.70;;
56297;SDS011;42208;6.376;-10.782;2023-04-15T12:59:35;31.13;;;6.43;;
56297;SDS011;42208;6.376;-10.782;2023-04-15T13:02:03;44.42;;;8.20;;
56297;SDS011;42208;6.376;-10.782;2023-04-15T13:04:32;27.27;;;5.65;;
56297;SDS011;42208;6.376;-10.782;2023-04-15T13:07:00;36.78;;;6.38;;
56297;SDS011;42208;6.376;-10.782;2023-04-15T13:09:29;44.97;;;8.80;;
56297;SDS011;42208;6.376;-10.782;2023-04-15T13:11:57;41.85;;;7.55;;
56297;SDS011;42208;6.376;-10.782;2023-04-15T13:14:25;37.08;;;7.40;;
56297;SDS011;42208;6.376;-10.782;2023-04-15T13:16:53;30.48;;;6.90;;
56297;SDS011;42208;6.376;-10.782;2023-04-15T13:19:22;35.88;;;6.90;;
56297;SDS011;42208;6.376;-10.782;2023-04-15T13:21:50;40.25;;;7.45;;
56297;SDS011;42208;6.376;-10.782;2023-04-15T13:24:18;31.30;;;5.57;;
56297;SDS011;42208;6.376;-10.782;2023-04-15T13:26:46;33.90;;;5.40;;
56297;SDS011;42208;6.376;-10.782;2023-04-15T13:29:16;24.38;;;6.07;;
56297;SDS011;42208;6.376;-10.782;2023-04-15T13:31:44;34.22;;;7.45;;
56297;SDS011;42208;6.376;-10.782;2023-04-15T13:34:13;29.30;;;5.80;;
56297;SDS011;42208;6.376;-10.782;2023-04-15T13:36:41;34.42;;;7.10;;
56297;SDS011;42208;6.376;-10.782;2023-04-15T13:39:09;23.75;;;5.72;;
56297;SDS011;42208;6.376;-10.782;2023-04-15T13:41:38;40.45;;;7.93;;
56297;SDS011;42208;6.376;-10.782;2023-04-15T13:44:06;37.65;;;8.55;;
56297;SDS011;42208;6.376;-10.782;2023-04-15T13:46:35;32.65;;;7.65;;
56297;SDS011;42208;6.376;-10.782;2023-04-15T13:49:03;35.67;;;6.45;;
56297;SDS011;42208;6.376;-10.782;2023-04-15T13:51:31;40.17;;;7.78;;
56297;SDS011;42208;6.376;-10.782;2023-04-15T13:53:59;37.97;;;7.90;;
56297;SDS011;42208;6.376;-10.782;2023-04-15T13:56:28;41.55;;;6.65;;
56297;SDS011;42208;6.376;-10.782;2023-04-15T13:58:59;34.80;;;7.07;;
56297;SDS011;42208;6.376;-10.782;2023-04-15T14:01:27;26.40;;;5.72;;
56297;SDS011;42208;6.376;-10.782;2023-04-15T14:03:56;31.23;;;6.68;;
56297;SDS011;42208;6.376;-10.782;2023-04-15T14:06:24;25.08;;;7.30;;
56297;SDS011;42208;6.376;-10.782;2023-04-15T14:08:53;20.38;;;4.55;;
56297;SDS011;42208;6.376;-10.782;2023-04-15T14:11:21;27.13;;;4.85;;
56297;SDS011;42208;6.376;-10.782;2023-04-15T14:13:50;52.13;;;8.88;;
56297;SDS011;42208;6.376;-10.782;2023-04-15T14:16:18;40.95;;;6.60;;
56297;SDS011;42208;6.376;-10.782;2023-04-15T14:18:46;30.42;;;6.18;;
56297;SDS011;42208;6.376;-10.782;2023-04-15T14:21:14;40.67;;;11.48;;
56297;SDS011;42208;6.376;-10.782;2023-04-15T14:23:43;43.42;;;7.65;;
56297;SDS011;42208;6.376;-10.782;2023-04-15T14:26:11;34.65;;;6.28;;
56297;SDS011;42208;6.376;-10.782;2023-04-15T14:28:39;55.33;;;8.73;;
56297;SDS011;42208;6.376;-10.782;2023-04-15T14:31:07;25.98;;;7.85;;
56297;SDS011;42208;6.376;-10.782;2023-04-15T14:33:35;45.35;;;8.00;;
56297;SDS011;42208;6.376;-10.782;2023-04-15T14:36:04;31.42;;;6.68;;
56297;SDS011;42208;6.376;-10.782;2023-04-15T14:38:33;27.58;;;5.20;;
56297;SDS011;42208;6.376;-10.782;2023-04-15T14:41:02;34.85;;;10.32;;
56297;SDS011;42208;6.376;-10.782;2023-04-15T14:46:02;42.55;;;12.63;;
56297;SDS011;42208;6.376;-10.782;2023-04-15T14:48:30;36.42;;;9.18;;
56297;SDS011;42208;6.376;-10.782;2023-04-15T14:50:59;51.75;;;9.73;;
56297;SDS011;42208;6.376;-10.782;2023-04-15T14:53:27;44.13;;;10.93;;
56297;SDS011;42208;6.376;-10.782;2023-04-15T14:55:55;34.33;;;9.40;;
56297;SDS011;42208;6.376;-10.782;2023-04-15T14:58:24;35.15;;;6.95;;